Página principal
METAR-TAF:

METAR-TAF

Aeroportos :

La Gomera, Espanha

latitude: 28-01-47N, longitude: 017-12-53W, altura: 218 m

Observação actual do tempo

O boletim foi feito há 33 minutos, às 12:00 UTC
Vento 8 kt de su-sudoeste, variando entre su-sudeste e oes-sudoeste
Temperatura 24°C
Humidade 65%
Pressão 1019 hPa
Visibilidade 10 km ou mais
Poucas nuvensa uma altura de 2500 ft, Cumulus congestus.

METAR: GCGM 231200Z 21008KT 160V250 9999 FEW025TCU 24/17 Q1019 RMK R09/19006KT 120V270 ARP/21007KT 160V280

Hora: 13:33 (12:33 UTC)

Previsão

O boletim foi feito há 4 horas e 33 minutos, às 08:00 UTC
Previsão válida de 23 às 09 UTC a 24 às 09 UTC
Vento 5 kt de sul
Visibilidade 10 km ou mais
Nuvens dispersasa uma altura de 3000 ft
Probabilidade 30% :
Temporariamente
de 23 às 09 UTC a 24 às 09 UTC
Visibilidade: 4500 m
Poucas nuvensa uma altura de 2500 ft, Cumulus congestus.
chuva

TAF: GCGM 230800Z 2309/2409 17005KT 9999 SCT030 TX25/2314Z TN20/2405Z PROB30 TEMPO 2309/2409 4500 RA FEW025TCU

Observações e previsões do tempo de mais de 4000 aeroportos (mensagens METAR e TAF).

As estações disponíveis são os pontos amarelos e vermelhos sobre o mapa.

Mova o rato sobre o mapa para ver o nome da estação.

Depois clique no ponto para visualizar as observações e previsões meteorológicas.

Para alterar o mapa : clique nos botões verdes com uma cruz preta para aumentar o zoom; no botão verde com uma pitada de zoom; ou nas setas verdes para mapas adjacentes.


METAR-TAF: